Marlboro, New Jersey
Current Conditions -  °F | °C
As of 6:55 PM on Sunday 21 Dec 2014 (Local Time) from KBLM Reporting Station
Overcast Overcast  
Wind Chill: 36°   Ceiling: 2500
Heat Index: 36°   Visibility: 10mi
Dew Point: 25°   Wind: 3mph
Humidity: 65%   Direction: 300°WNW
Pressure: 30.32"   Gusts: NA
Location:  40.32°N, 74.25°W
Report Text: KBLM 212355Z AUTO 30003KT 10SM OVC025 02/M04 A3032 RMK AO1 10020 20020 400201010 52014
Loading
Personal Weather Stations






























Interactive Weather Map New forecast layout! Learn more

10-Day Weather Forecast

Advertisements
Track Severe Weather on mobile